Etusivu
METAR-TAF:

METAR-TAF

Lentoasemat :

Minden, Nevada, Yhdysvallat

Leveyspiiri: 39-00-03N, Pituuspiiri: 119-45-07W, korkeus merenpinnasta: 1439 m

Tämänhetkinen sää

Tämä raportti tehtiin 12 minuuttia sitten, kello 10.15 UTC
Tuuli 4 kn idästä
Lämpötila -8°C
Kosteus 73%
Ilmanpaine 1021 hPa
Näkyvyys: 16.1 km
Muutamia pilviä 12000 ft:n korkeudessa

METAR: KMEV 191015Z AUTO 08004KT 10SM FEW120 M08/M12 A3016 RMK AO2

Aika: 02:27 (10:27 UTC)

Sääennuste

Tämä raportti tehtiin 4 tuntia ja 37 minuuttia sitten, kello 05.50 UTC
Ennuste voimassa 19. päivästä klo 06 UTC - 20. päivään klo 06 UTC
Tuuli 3 kn eri suunnista
Näkyvyys: 10 km
Hajonneita pilviä 18000 ft:n korkeudessa
From 19. päivästä klo 2200 UTC
Tuuli 6 kn pohjoisen/luoteesta
Näkyvyys: 10 km
Hajanaisia pilviä 20000 ft:n korkeudessa

TAF: KMEV 190550Z 1906/2006 VRB03KT P6SM BKN180 FM192200 33006KT P6SM SCT200

Säähavainnot ja -ennusteet yli 4000 lentoasemalta (METAR- ja TAF-raportit).

Käytössä olevat sääasemat on merkitty karttaan keltaisilla ja punaisilla pisteillä.

Aseta hiiri pisteen päälle nähdäksesi sääaseman nimen.

Klikkaa sitten nähdäksesi säähavainnot ja -ennusteet.

Kartan vaihtaminen: klikkaa mustalla rastilla varustettuja vihreitä pisteitä, niin voit zoomata sisään; viivalla varustettua vihreää pistettä, niin voit zoomata ulos tai vihreitä nuolia, niin pääset viereisille kartoille.


METAR-TAF: